Time;durP1;ratioP1;P1;durP2;ratioP2;P2;SDS_P1;SDS_P2;PMS_P1;PMS_P2;Temp;Humidity;BMP_temperature;BMP_pressure;BME280_temperature;BME280_humidity;BME280_pressure;Samples;Min_cycle;Max_cycle;Signal;HPM_P1;HPM_P2
2022/03/04 00:01:21;;;;;;;15.98;8.57;;;1.00;99.90;;;;;;5022708;28;20049;-96
2022/03/04 00:03:47;;;;;;;16.83;7.88;;;1.00;99.90;;;;;;5016173;28;20045;-94
2022/03/04 00:06:21;;;;;;;16.75;8.18;;;1.00;99.90;;;;;;5007993;28;20042;-96
2022/03/04 00:08:47;;;;;;;17.42;7.82;;;1.00;99.90;;;;;;5022218;28;20057;-96
2022/03/04 00:11:19;;;;;;;18.08;7.80;;;1.00;99.90;;;;;;5008646;28;20042;-96
2022/03/04 00:13:45;;;;;;;17.27;7.60;;;0.90;99.90;;;;;;5009654;28;20061;-96
2022/03/04 00:16:11;;;;;;;17.73;7.45;;;0.90;99.90;;;;;;5023375;28;20101;-96
2022/03/04 00:18:37;;;;;;;17.88;7.55;;;0.80;99.90;;;;;;5013061;28;20037;-96
2022/03/04 00:21:03;;;;;;;17.27;7.35;;;0.80;99.90;;;;;;5010356;28;20459;-96
2022/03/04 00:23:29;;;;;;;17.65;7.82;;;0.80;99.90;;;;;;5007713;28;20038;-96
2022/03/04 00:25:55;;;;;;;17.48;7.88;;;0.80;99.90;;;;;;5018328;28;20499;-96
2022/03/04 00:28:20;;;;;;;19.10;9.18;;;0.80;99.90;;;;;;5009218;28;20081;-96
2022/03/04 00:30:46;;;;;;;18.00;7.65;;;0.80;99.90;;;;;;5044180;28;20069;-95
2022/03/04 00:33:12;;;;;;;16.48;8.15;;;0.80;99.90;;;;;;5011237;28;20053;-96
2022/03/04 00:35:38;;;;;;;19.13;7.72;;;0.80;99.90;;;;;;5026746;28;20042;-96
2022/03/04 00:38:03;;;;;;;17.90;8.02;;;0.80;99.90;;;;;;5016191;28;20038;-96
2022/03/04 00:40:29;;;;;;;18.33;9.50;;;0.80;99.90;;;;;;5013772;28;20052;-95
2022/03/04 00:42:55;;;;;;;17.88;8.30;;;0.80;99.90;;;;;;5009214;28;20085;-96
2022/03/04 00:45:21;;;;;;;19.90;8.52;;;0.80;99.90;;;;;;5012988;28;20062;-96
2022/03/04 00:47:46;;;;;;;18.70;7.32;;;0.80;99.90;;;;;;5011925;28;20108;-95
2022/03/04 00:50:12;;;;;;;17.33;7.97;;;0.70;99.90;;;;;;5008934;28;20038;-95
2022/03/04 00:52:38;;;;;;;18.60;8.25;;;0.70;99.90;;;;;;5016640;28;20046;-96
2022/03/04 00:55:04;;;;;;;17.65;8.88;;;0.70;99.90;;;;;;5006835;28;20077;-96
2022/03/04 00:57:30;;;;;;;18.10;8.45;;;0.60;99.90;;;;;;5008607;28;20042;-95
2022/03/04 00:59:56;;;;;;;17.80;7.93;;;0.60;99.90;;;;;;5013785;28;20050;-96
2022/03/04 01:02:22;;;;;;;17.38;8.57;;;0.60;99.90;;;;;;5019544;28;20045;-96
2022/03/04 01:04:47;;;;;;;18.08;9.13;;;0.70;99.90;;;;;;5037170;28;20557;-96
2022/03/04 01:07:13;;;;;;;18.08;9.02;;;0.60;99.90;;;;;;5020833;28;20064;-95
2022/03/04 01:09:41;;;;;;;21.80;8.40;;;0.70;99.90;;;;;;5010773;28;20038;-96
2022/03/04 01:12:08;;;;;;;17.17;8.15;;;0.60;99.90;;;;;;5035259;28;20065;-96
2022/03/04 01:14:33;;;;;;;17.10;7.95;;;0.50;99.90;;;;;;5015110;28;20042;-96
2022/03/04 01:16:59;;;;;;;18.27;8.35;;;0.50;99.90;;;;;;5019209;28;20053;-96
2022/03/04 01:19:25;;;;;;;19.30;8.60;;;0.40;99.90;;;;;;5023986;28;20105;-96
2022/03/04 01:21:51;;;;;;;19.38;9.05;;;0.40;99.90;;;;;;5008227;28;20394;-96
2022/03/04 01:24:17;;;;;;;21.23;9.57;;;0.30;99.90;;;;;;5024047;28;20046;-96
2022/03/04 01:26:43;;;;;;;19.60;8.48;;;0.50;99.90;;;;;;5009533;28;20052;-96
2022/03/04 01:29:09;;;;;;;22.60;9.50;;;0.50;99.90;;;;;;5016342;28;20086;-96
2022/03/04 01:31:37;;;;;;;20.20;9.38;;;0.40;99.90;;;;;;5018854;28;20042;-96
2022/03/04 01:34:05;;;;;;;21.77;9.65;;;0.40;99.90;;;;;;5045185;28;20048;-96
2022/03/04 01:36:33;;;;;;;18.35;9.32;;;0.30;99.90;;;;;;5007895;28;20051;-96
2022/03/04 01:39:00;;;;;;;20.50;8.43;;;0.30;99.90;;;;;;5013649;28;20034;-95
2022/03/04 01:41:26;;;;;;;18.88;9.00;;;0.30;99.90;;;;;;5015826;28;20108;-96
2022/03/04 01:43:52;;;;;;;20.20;9.27;;;0.30;99.90;;;;;;5021965;28;20038;-96
2022/03/04 01:46:22;;;;;;;18.70;8.02;;;0.20;99.90;;;;;;5019490;28;20041;-96
2022/03/04 01:48:48;;;;;;;16.63;8.73;;;0.20;99.90;;;;;;5019790;28;20433;-96
2022/03/04 01:51:14;;;;;;;18.35;8.82;;;0.10;99.90;;;;;;5016634;28;20046;-95
2022/03/04 01:53:41;;;;;;;17.88;9.45;;;0.10;99.90;;;;;;5012491;28;20041;-96
2022/03/04 01:56:08;;;;;;;20.58;9.63;;;0.10;99.90;;;;;;5009594;28;20042;-96
2022/03/04 01:58:34;;;;;;;18.83;8.68;;;0.10;99.90;;;;;;5025596;28;20041;-96
2022/03/04 02:01:00;;;;;;;20.42;8.80;;;0.10;99.90;;;;;;5005210;28;20144;-96
2022/03/04 02:03:25;;;;;;;22.25;8.90;;;0.10;99.90;;;;;;5030669;28;20508;-94
2022/03/04 02:05:51;;;;;;;19.23;9.25;;;0.10;99.90;;;;;;5008420;28;20128;-96
2022/03/04 02:08:17;;;;;;;20.67;9.88;;;0.00;99.90;;;;;;5005981;28;20046;-96
2022/03/04 02:10:44;;;;;;;22.30;9.07;;;0.00;99.90;;;;;;4993834;28;20050;-96
2022/03/04 02:13:12;;;;;;;19.63;9.95;;;0.00;99.90;;;;;;5031482;28;20050;-95
2022/03/04 02:15:38;;;;;;;23.92;10.80;;;0.00;99.90;;;;;;5026552;28;20038;-96
2022/03/04 02:18:12;;;;;;;20.50;9.43;;;0.00;99.90;;;;;;5005302;28;20064;-95
2022/03/04 02:20:44;;;;;;;24.08;10.27;;;0.00;99.90;;;;;;5005341;28;20114;-94
2022/03/04 02:23:12;;;;;;;21.25;10.85;;;-0.10;99.90;;;;;;5007240;28;20470;-95
2022/03/04 02:25:40;;;;;;;21.23;10.82;;;0.00;99.90;;;;;;5009330;28;20038;-96
2022/03/04 02:28:06;;;;;;;22.75;10.57;;;-0.10;99.90;;;;;;5003509;28;20123;-95
2022/03/04 02:30:32;;;;;;;23.00;9.35;;;-0.10;99.90;;;;;;4998060;28;20046;-95
2022/03/04 02:32:58;;;;;;;20.40;9.57;;;-0.10;99.90;;;;;;5006996;28;20049;-96
2022/03/04 02:35:23;;;;;;;23.20;10.25;;;-0.10;99.90;;;;;;5024931;28;20049;-95
2022/03/04 02:37:49;;;;;;;24.98;10.40;;;-0.20;99.90;;;;;;5015135;28;20046;-95
2022/03/04 02:40:15;;;;;;;24.65;10.90;;;-0.20;99.90;;;;;;5003428;28;20038;-94
2022/03/04 02:42:40;;;;;;;23.08;10.00;;;-0.20;99.90;;;;;;5003595;28;20059;-95
2022/03/04 02:45:06;;;;;;;22.30;10.02;;;-0.20;99.90;;;;;;5000624;28;20042;-93
2022/03/04 02:47:32;;;;;;;22.80;10.13;;;-0.20;99.90;;;;;;5005130;28;20136;-95
2022/03/04 02:49:58;;;;;;;23.58;10.70;;;-0.20;99.90;;;;;;4986960;28;20922;-96
2022/03/04 02:52:23;;;;;;;23.88;10.20;;;-0.20;99.90;;;;;;5006865;28;20050;-96
2022/03/04 02:54:49;;;;;;;26.52;9.85;;;-0.30;99.90;;;;;;5002548;28;20060;-94
2022/03/04 02:57:14;;;;;;;23.50;11.70;;;-0.30;99.90;;;;;;5010134;28;20043;-93
2022/03/04 02:59:40;;;;;;;25.02;10.27;;;-0.30;99.90;;;;;;5001466;28;20041;-94
2022/03/04 03:02:06;;;;;;;25.02;11.55;;;-0.30;99.90;;;;;;5002150;28;20049;-95
2022/03/04 03:04:32;;;;;;;28.20;12.27;;;-0.20;99.90;;;;;;5004658;28;20677;-96
2022/03/04 03:06:58;;;;;;;25.27;10.88;;;-0.20;99.90;;;;;;4997641;28;20051;-96
2022/03/04 03:09:23;;;;;;;22.90;10.80;;;-0.30;99.90;;;;;;4984188;28;20474;-94
2022/03/04 03:11:49;;;;;;;26.38;11.40;;;-0.30;99.90;;;;;;5011128;28;20054;-94
2022/03/04 03:14:15;;;;;;;26.83;12.35;;;-0.30;99.90;;;;;;5002521;28;21094;-95
2022/03/04 03:16:40;;;;;;;26.02;11.93;;;-0.30;99.90;;;;;;5002160;28;20516;-94
2022/03/04 03:19:08;;;;;;;26.17;12.13;;;-0.30;99.90;;;;;;5000767;28;20099;-95
2022/03/04 03:21:34;;;;;;;25.88;12.40;;;-0.30;99.90;;;;;;5009642;28;20072;-95
2022/03/04 03:23:59;;;;;;;26.73;11.93;;;-0.30;99.90;;;;;;5005297;28;20403;-93
2022/03/04 03:26:28;;;;;;;25.98;11.43;;;-0.40;99.90;;;;;;5003684;28;20095;-96
2022/03/04 03:28:56;;;;;;;24.58;11.27;;;-0.40;99.90;;;;;;4989526;28;20042;-96
2022/03/04 03:31:22;;;;;;;24.95;11.50;;;-0.40;99.90;;;;;;4999055;28;20046;-93
2022/03/04 03:33:48;;;;;;;24.25;12.00;;;-0.50;99.90;;;;;;5013773;28;20103;-95
2022/03/04 03:36:13;;;;;;;29.25;12.43;;;-0.50;99.90;;;;;;5007676;28;20046;-95
2022/03/04 03:38:39;;;;;;;26.15;11.82;;;-0.50;99.90;;;;;;5005120;28;20049;-93
2022/03/04 03:41:05;;;;;;;26.48;12.30;;;-0.50;99.90;;;;;;5003484;28;20045;-94
2022/03/04 03:43:32;;;;;;;26.77;12.05;;;-0.50;99.90;;;;;;5002559;28;20057;-96
2022/03/04 03:45:58;;;;;;;22.55;10.52;;;-0.50;99.90;;;;;;5003591;28;20076;-96
2022/03/04 03:48:24;;;;;;;24.70;11.13;;;-0.60;99.90;;;;;;5015510;28;20082;-93
2022/03/04 03:50:49;;;;;;;26.88;11.75;;;-0.60;99.90;;;;;;5015418;28;20042;-96
2022/03/04 03:53:15;;;;;;;26.60;12.57;;;-0.70;99.90;;;;;;5015783;28;20050;-94
2022/03/04 03:55:41;;;;;;;30.02;13.40;;;-0.70;99.90;;;;;;5001913;28;20081;-95
2022/03/04 03:58:06;;;;;;;29.10;13.20;;;-0.70;99.90;;;;;;5002359;28;20041;-96
2022/03/04 04:00:35;;;;;;;29.35;14.10;;;-0.60;99.90;;;;;;5084058;23;20033;-96
2022/03/04 04:03:00;;;;;;;31.38;14.15;;;-0.70;99.90;;;;;;4993561;28;20108;-94
2022/03/04 04:05:26;;;;;;;29.05;13.82;;;-0.60;99.90;;;;;;5002229;28;20031;-96
2022/03/04 04:07:52;;;;;;;27.85;12.75;;;-0.60;99.90;;;;;;5006266;28;20050;-94
2022/03/04 04:10:18;;;;;;;29.42;13.90;;;-0.50;99.90;;;;;;5012651;28;20034;-96
2022/03/04 04:12:44;;;;;;;30.17;13.88;;;-0.50;99.90;;;;;;4989843;28;20480;-95
2022/03/04 04:15:09;;;;;;;29.17;13.00;;;-0.50;99.90;;;;;;4985338;28;20070;-95
2022/03/04 04:17:35;;;;;;;32.33;13.60;;;-0.60;99.90;;;;;;4993928;28;20049;-94
2022/03/04 04:20:01;;;;;;;32.10;13.98;;;-0.50;99.90;;;;;;4989844;28;20474;-96
2022/03/04 04:22:26;;;;;;;33.58;14.90;;;-0.50;99.90;;;;;;4978336;28;20046;-95
2022/03/04 04:24:52;;;;;;;29.92;14.30;;;-0.50;99.90;;;;;;4985068;28;20453;-95
2022/03/04 04:27:18;;;;;;;31.55;13.52;;;-0.50;99.90;;;;;;5000467;28;20096;-96
2022/03/04 04:29:43;;;;;;;28.80;13.85;;;-0.50;99.90;;;;;;4980522;28;20117;-95
2022/03/04 04:32:09;;;;;;;35.45;14.55;;;-0.50;99.90;;;;;;4992381;28;20085;-96
2022/03/04 04:34:35;;;;;;;34.00;15.43;;;-0.40;99.90;;;;;;5007172;28;20045;-95
2022/03/04 04:37:01;;;;;;;36.47;15.93;;;-0.40;99.90;;;;;;5008029;28;20041;-96
2022/03/04 04:39:26;;;;;;;36.63;16.02;;;-0.40;99.90;;;;;;4981785;28;20423;-95
2022/03/04 04:41:52;;;;;;;28.85;13.70;;;-0.40;99.90;;;;;;5002471;28;20074;-95
2022/03/04 04:44:18;;;;;;;32.05;15.55;;;-0.40;99.90;;;;;;5004203;28;20076;-96
2022/03/04 04:46:43;;;;;;;34.83;15.73;;;-0.40;99.90;;;;;;4987369;28;20058;-95
2022/03/04 04:49:09;;;;;;;34.42;15.10;;;-0.30;99.90;;;;;;4983329;28;20128;-96
2022/03/04 04:51:35;;;;;;;36.03;15.05;;;-0.40;99.90;;;;;;4989979;28;20535;-92
2022/03/04 04:54:01;;;;;;;33.42;15.98;;;-0.30;99.90;;;;;;4996094;28;20084;-92
2022/03/04 04:56:26;;;;;;;31.90;14.40;;;-0.40;99.90;;;;;;4987246;28;20045;-93
2022/03/04 04:58:52;;;;;;;30.50;14.43;;;-0.30;99.90;;;;;;4982757;28;20042;-94
2022/03/04 05:01:18;;;;;;;32.17;14.48;;;-0.40;99.90;;;;;;5008899;28;20141;-94
2022/03/04 05:03:44;;;;;;;29.42;12.90;;;-0.30;99.90;;;;;;4993847;28;20065;-94
2022/03/04 05:06:10;;;;;;;32.80;14.20;;;-0.30;99.90;;;;;;5009762;28;20557;-93
2022/03/04 05:08:35;;;;;;;28.65;12.85;;;-0.20;99.90;;;;;;4992731;28;20049;-94
2022/03/04 05:11:01;;;;;;;31.23;14.15;;;-0.30;99.90;;;;;;5004710;28;20034;-93
2022/03/04 05:13:27;;;;;;;32.67;14.40;;;-0.30;99.90;;;;;;5000972;28;20048;-93
2022/03/04 05:15:53;;;;;;;35.78;14.75;;;-0.30;99.90;;;;;;4990829;28;20061;-93
2022/03/04 05:18:19;;;;;;;32.22;14.45;;;-0.30;99.90;;;;;;5008785;28;20034;-93
2022/03/04 05:20:44;;;;;;;31.20;14.30;;;-0.30;99.90;;;;;;4992071;28;20045;-94
2022/03/04 05:23:10;;;;;;;29.98;14.70;;;-0.30;99.90;;;;;;4988807;28;20069;-93
2022/03/04 05:25:36;;;;;;;29.50;14.02;;;-0.30;99.90;;;;;;5004243;28;20394;-96
2022/03/04 05:28:02;;;;;;;33.97;14.60;;;-0.30;99.90;;;;;;4987842;28;20037;-94
2022/03/04 05:30:27;;;;;;;32.90;13.95;;;-0.30;99.90;;;;;;4988990;28;20103;-95
2022/03/04 05:32:53;;;;;;;31.20;14.82;;;-0.30;99.90;;;;;;4991865;28;20612;-92
2022/03/04 05:35:19;;;;;;;34.53;15.20;;;-0.30;99.90;;;;;;5009170;28;20068;-94
2022/03/04 05:37:45;;;;;;;32.60;15.85;;;-0.30;99.90;;;;;;5002097;28;20053;-94
2022/03/04 05:40:11;;;;;;;33.67;15.20;;;-0.20;99.90;;;;;;4990018;28;20281;-95
2022/03/04 05:42:37;;;;;;;29.20;13.45;;;-0.20;99.90;;;;;;4984588;28;20045;-93
2022/03/04 05:45:03;;;;;;;32.92;14.52;;;-0.20;99.90;;;;;;4990517;28;20501;-94
2022/03/04 05:47:29;;;;;;;35.33;15.30;;;-0.20;99.90;;;;;;5030688;28;20049;-93
2022/03/04 05:49:55;;;;;;;31.38;15.10;;;-0.20;99.90;;;;;;5003398;28;20887;-94
2022/03/04 05:52:21;;;;;;;33.78;15.13;;;-0.20;99.90;;;;;;5003841;28;20101;-95
2022/03/04 05:54:46;;;;;;;32.33;14.15;;;-0.20;99.90;;;;;;5014684;28;20054;-94
2022/03/04 05:57:12;;;;;;;32.85;15.18;;;-0.20;99.90;;;;;;5000966;28;20046;-93
2022/03/04 05:59:38;;;;;;;29.67;13.77;;;-0.20;99.90;;;;;;4993268;28;20065;-94
2022/03/04 06:02:04;;;;;;;29.70;14.55;;;-0.30;99.90;;;;;;4988261;28;20060;-95
2022/03/04 06:04:29;;;;;;;31.50;14.13;;;-0.30;99.90;;;;;;5007058;28;20073;-94
2022/03/04 06:06:55;;;;;;;31.08;14.30;;;-0.30;99.90;;;;;;4999388;28;20049;-95
2022/03/04 06:09:21;;;;;;;30.42;14.25;;;-0.30;99.90;;;;;;5009416;28;20033;-93
2022/03/04 06:11:47;;;;;;;34.03;14.98;;;-0.30;99.90;;;;;;4990766;28;20643;-93
2022/03/04 06:14:12;;;;;;;32.58;15.07;;;-0.30;99.90;;;;;;5005735;28;20045;-92
2022/03/04 06:16:38;;;;;;;32.17;13.43;;;-0.30;99.90;;;;;;4985244;28;20046;-94
2022/03/04 06:19:04;;;;;;;29.00;13.18;;;-0.30;99.90;;;;;;5005492;28;20030;-93
2022/03/04 06:21:30;;;;;;;28.00;12.60;;;-0.30;99.90;;;;;;4985760;28;20489;-94
2022/03/04 06:23:55;;;;;;;33.42;14.48;;;-0.20;99.90;;;;;;4992401;28;20071;-94
2022/03/04 06:26:21;;;;;;;28.67;13.40;;;-0.20;99.90;;;;;;4998218;28;20041;-93
2022/03/04 06:28:47;;;;;;;30.70;12.68;;;-0.20;99.90;;;;;;4987504;28;20109;-95
2022/03/04 06:31:16;;;;;;;30.27;13.20;;;-0.20;99.90;;;;;;5007238;28;20054;-95
2022/03/04 06:33:44;;;;;;;32.50;14.82;;;-0.10;99.90;;;;;;5017963;28;20386;-96
2022/03/04 06:36:13;;;;;;;30.17;14.30;;;-0.20;99.90;;;;;;4993169;28;20042;-95
2022/03/04 06:38:41;;;;;;;30.42;12.93;;;-0.20;99.90;;;;;;4999112;28;20030;-95
2022/03/04 06:41:08;;;;;;;31.92;14.07;;;-0.20;99.90;;;;;;5017738;28;20041;-94
2022/03/04 06:43:34;;;;;;;31.95;12.70;;;-0.20;99.90;;;;;;5003737;28;20038;-93
2022/03/04 06:46:01;;;;;;;31.52;15.15;;;-0.10;99.90;;;;;;5006404;28;20046;-95
2022/03/04 06:48:28;;;;;;;33.42;15.63;;;-0.10;99.90;;;;;;4989155;28;20137;-96
2022/03/04 06:50:54;;;;;;;33.55;15.73;;;-0.10;99.90;;;;;;5005842;28;20045;-96
2022/03/04 06:53:21;;;;;;;32.85;16.23;;;-0.10;99.90;;;;;;5003921;28;20092;-95
2022/03/04 06:55:47;;;;;;;31.95;14.80;;;-0.10;99.90;;;;;;5001833;28;20042;-95
2022/03/04 06:58:13;;;;;;;31.67;15.50;;;-0.10;99.90;;;;;;4988919;28;20069;-93
2022/03/04 07:00:39;;;;;;;33.53;15.75;;;-0.10;99.90;;;;;;4994965;28;20141;-95
2022/03/04 07:03:05;;;;;;;36.72;16.95;;;-0.10;99.90;;;;;;4989901;28;20064;-96
2022/03/04 07:05:31;;;;;;;32.70;14.43;;;0.00;99.90;;;;;;5014723;28;20042;-94
2022/03/04 07:07:57;;;;;;;33.05;15.07;;;0.00;99.90;;;;;;4988224;28;20073;-96
2022/03/04 07:10:23;;;;;;;34.65;15.55;;;0.00;99.90;;;;;;4992192;28;20052;-96
2022/03/04 07:12:50;;;;;;;31.90;14.73;;;0.00;99.90;;;;;;4996162;28;20061;-94
2022/03/04 07:15:16;;;;;;;32.05;15.27;;;0.10;99.90;;;;;;4979530;28;20076;-95
2022/03/04 07:17:41;;;;;;;34.50;14.70;;;0.10;99.90;;;;;;4976693;28;20482;-94
2022/03/04 07:20:08;;;;;;;31.23;15.43;;;0.10;99.90;;;;;;5004602;28;20042;-94
2022/03/04 07:22:35;;;;;;;34.35;15.75;;;0.10;99.90;;;;;;4985851;28;20049;-96
2022/03/04 07:25:10;;;;;;;32.72;15.15;;;0.20;99.90;;;;;;5002464;28;20432;-92
2022/03/04 07:27:36;;;;;;;32.60;15.32;;;0.20;99.90;;;;;;5002799;28;20494;-95
2022/03/04 07:30:11;;;;;;;32.70;14.90;;;0.20;99.90;;;;;;4993626;28;21128;-95
2022/03/04 07:32:38;;;;;;;29.13;13.98;;;0.20;99.90;;;;;;4997031;28;20052;-95
2022/03/04 07:35:04;;;;;;;32.08;14.02;;;0.10;99.90;;;;;;5003282;28;20038;-95
2022/03/04 07:37:30;;;;;;;31.20;14.63;;;0.20;99.90;;;;;;4986497;28;20410;-95
2022/03/04 07:39:56;;;;;;;31.67;14.88;;;0.20;99.90;;;;;;5013224;28;20054;-93
2022/03/04 07:42:22;;;;;;;30.50;14.20;;;0.20;99.90;;;;;;4983501;28;20094;-94
2022/03/04 07:44:49;;;;;;;29.90;14.48;;;0.20;99.90;;;;;;4995287;28;20041;-94
2022/03/04 07:47:14;;;;;;;28.88;13.18;;;0.10;99.90;;;;;;4979733;28;20053;-90
2022/03/04 07:49:42;;;;;;;32.03;15.63;;;0.20;99.90;;;;;;4974556;28;20057;-92
2022/03/04 07:52:11;;;;;;;31.65;15.27;;;0.20;99.90;;;;;;4985788;28;20085;-91
2022/03/04 07:54:37;;;;;;;31.65;14.35;;;0.20;99.90;;;;;;4997119;28;20042;-89
2022/03/04 07:57:03;;;;;;;34.40;16.23;;;0.30;99.90;;;;;;4981811;28;20058;-91
2022/03/04 07:59:28;;;;;;;32.75;15.18;;;0.30;99.90;;;;;;4977293;28;20057;-91
2022/03/04 08:01:54;;;;;;;32.13;14.95;;;0.30;99.90;;;;;;4992138;28;20525;-91
2022/03/04 08:04:20;;;;;;;31.52;14.27;;;0.30;99.90;;;;;;4976932;28;20046;-88
2022/03/04 08:06:46;;;;;;;31.80;15.57;;;0.30;99.90;;;;;;4988595;28;20052;-90
2022/03/04 08:09:11;;;;;;;32.60;14.15;;;0.30;99.90;;;;;;5000628;28;20041;-91
2022/03/04 08:11:37;;;;;;;33.35;15.02;;;0.50;99.90;;;;;;4986216;28;20045;-91
2022/03/04 08:14:03;;;;;;;31.33;13.93;;;0.50;99.90;;;;;;4998431;28;20122;-92
2022/03/04 08:16:29;;;;;;;32.92;15.50;;;0.30;99.90;;;;;;4982809;28;20042;-94
2022/03/04 08:18:56;;;;;;;34.25;15.70;;;0.50;99.90;;;;;;4997351;28;20076;-95
2022/03/04 08:21:23;;;;;;;33.38;14.93;;;0.50;99.90;;;;;;4984565;28;20053;-95
2022/03/04 08:23:49;;;;;;;32.53;15.43;;;0.60;99.90;;;;;;5023821;28;20053;-93
2022/03/04 08:26:14;;;;;;;30.35;15.38;;;0.70;99.90;;;;;;5011748;28;20099;-94
2022/03/04 08:28:40;;;;;;;30.98;13.98;;;0.80;99.90;;;;;;4990819;28;20049;-92
2022/03/04 08:31:11;;;;;;;28.77;14.95;;;0.80;99.90;;;;;;4981598;28;20122;-93
2022/03/04 08:33:41;;;;;;;28.03;13.07;;;0.90;99.90;;;;;;5004353;28;20048;-94
2022/03/04 08:36:07;;;;;;;31.00;15.23;;;1.00;99.90;;;;;;4985676;28;20042;-93
2022/03/04 08:38:33;;;;;;;30.17;13.10;;;1.00;99.90;;;;;;4999794;28;20052;-93
2022/03/04 08:40:59;;;;;;;30.60;14.90;;;1.10;99.90;;;;;;5025620;28;20064;-93
2022/03/04 08:43:25;;;;;;;27.95;14.13;;;1.20;99.90;;;;;;5001388;28;20037;-93
2022/03/04 08:45:50;;;;;;;30.80;15.40;;;1.20;99.90;;;;;;5006303;28;20053;-93
2022/03/04 08:48:16;;;;;;;31.35;15.73;;;1.20;99.90;;;;;;4978569;28;20031;-93
2022/03/04 08:50:42;;;;;;;33.40;15.30;;;1.30;99.90;;;;;;5004412;28;20049;-95
2022/03/04 08:53:08;;;;;;;33.42;15.20;;;1.40;99.90;;;;;;4983070;28;20105;-95
2022/03/04 08:55:33;;;;;;;29.60;14.93;;;1.40;99.90;;;;;;4983288;28;20041;-94
2022/03/04 08:58:00;;;;;;;29.92;16.20;;;1.50;99.90;;;;;;5005075;28;20091;-94
2022/03/04 09:00:29;;;;;;;32.38;16.92;;;1.70;99.90;;;;;;4991653;28;20065;-95
2022/03/04 09:02:55;;;;;;;30.10;14.68;;;1.70;99.90;;;;;;4978026;28;20686;-93
2022/03/04 09:05:21;;;;;;;27.42;14.32;;;1.80;99.90;;;;;;4996308;28;20504;-94
2022/03/04 09:07:47;;;;;;;31.73;15.23;;;1.80;99.90;;;;;;4960309;28;20411;-94
2022/03/04 09:10:13;;;;;;;28.83;15.23;;;2.00;99.90;;;;;;4983474;28;20392;-94
2022/03/04 09:12:39;;;;;;;26.23;14.77;;;2.10;99.90;;;;;;4986597;28;21335;-93
2022/03/04 09:15:07;;;;;;;28.83;14.95;;;2.20;99.90;;;;;;5001051;28;20048;-93
2022/03/04 09:17:33;;;;;;;27.25;14.82;;;2.30;99.90;;;;;;4976379;28;20100;-94
2022/03/04 09:19:59;;;;;;;25.50;14.35;;;2.40;99.90;;;;;;4975093;28;20065;-94
2022/03/04 09:22:25;;;;;;;28.63;15.18;;;2.40;99.90;;;;;;4981765;28;20492;-93
2022/03/04 09:24:51;;;;;;;28.52;15.48;;;2.50;99.90;;;;;;4992230;28;20103;-94
2022/03/04 09:27:17;;;;;;;24.02;13.18;;;2.50;99.90;;;;;;4998518;28;20046;-94
2022/03/04 09:29:42;;;;;;;28.50;14.90;;;2.50;99.90;;;;;;4979958;28;20049;-93
2022/03/04 09:32:10;;;;;;;25.20;14.07;;;2.50;99.90;;;;;;4999711;28;20114;-93
2022/03/04 09:34:36;;;;;;;27.17;15.00;;;2.40;99.90;;;;;;4979357;28;20049;-95
2022/03/04 09:37:02;;;;;;;25.83;14.10;;;2.10;99.90;;;;;;4985044;28;20053;-92
2022/03/04 09:39:28;;;;;;;28.65;14.23;;;2.00;99.90;;;;;;4986437;28;20398;-94
2022/03/04 09:41:54;;;;;;;29.25;14.43;;;2.00;99.90;;;;;;5006668;28;20566;-94
2022/03/04 09:44:20;;;;;;;27.25;15.48;;;2.10;99.90;;;;;;4976609;28;20045;-94
2022/03/04 09:46:45;;;;;;;25.40;13.48;;;2.40;99.90;;;;;;4999079;28;20030;-93
2022/03/04 09:49:15;;;;;;;28.58;14.07;;;2.60;99.90;;;;;;4978062;28;20410;-93
2022/03/04 09:51:41;;;;;;;27.52;14.20;;;2.70;99.90;;;;;;5000955;28;20547;-92
2022/03/04 09:54:07;;;;;;;25.27;13.82;;;2.80;99.90;;;;;;4994187;28;20149;-95
2022/03/04 09:56:33;;;;;;;25.27;14.20;;;2.90;99.90;;;;;;4994237;28;20077;-93
2022/03/04 09:59:00;;;;;;;28.27;15.05;;;2.90;99.90;;;;;;4998010;28;20050;-94
2022/03/04 10:01:25;;;;;;;26.88;14.07;;;2.70;99.90;;;;;;5002526;28;20483;-94
2022/03/04 10:03:53;;;;;;;30.65;15.20;;;2.80;99.90;;;;;;5006533;28;20054;-94
2022/03/04 10:06:20;;;;;;;24.50;13.75;;;2.80;99.90;;;;;;4983250;28;20131;-94
2022/03/04 10:08:48;;;;;;;26.55;14.02;;;2.80;99.90;;;;;;5001447;28;20131;-96
2022/03/04 10:11:25;;;;;;;26.70;14.40;;;2.80;99.90;;;;;;5013166;28;20049;-95
2022/03/04 10:13:54;;;;;;;28.08;15.05;;;2.90;99.90;;;;;;4995517;28;20044;-92
2022/03/04 10:16:28;;;;;;;27.30;14.85;;;2.90;99.90;;;;;;4998441;28;20050;-94
2022/03/04 10:19:07;;;;;;;25.98;14.82;;;2.70;99.90;;;;;;4986413;28;20049;-94
2022/03/04 10:21:51;;;;;;;27.63;14.80;;;2.60;99.90;;;;;;4988540;28;20128;-93
2022/03/04 10:24:27;;;;;;;29.65;15.63;;;2.40;99.90;;;;;;4980889;28;20081;-94
2022/03/04 10:27:03;;;;;;;29.48;15.27;;;2.40;99.90;;;;;;4996554;28;20057;-95
2022/03/04 10:29:31;;;;;;;28.35;15.32;;;2.50;99.90;;;;;;5003059;28;20068;-95
2022/03/04 10:32:12;;;;;;;26.92;15.63;;;2.60;99.90;;;;;;4982431;28;20078;-94
2022/03/04 10:34:53;;;;;;;28.52;15.38;;;2.60;99.90;;;;;;4983839;28;20410;-94
2022/03/04 10:37:40;;;;;;;30.25;14.60;;;2.60;99.90;;;;;;4979566;28;20100;-95
2022/03/04 10:40:08;;;;;;;30.63;15.50;;;2.60;99.90;;;;;;5001939;28;20049;-94
2022/03/04 10:42:38;;;;;;;28.05;14.68;;;2.80;99.90;;;;;;4998706;28;19936;-94
2022/03/04 10:45:07;;;;;;;31.20;15.68;;;3.00;99.90;;;;;;4985182;28;20131;-94
2022/03/04 10:47:40;;;;;;;31.58;15.73;;;3.10;99.90;;;;;;4985648;28;20126;-95
2022/03/04 10:50:06;;;;;;;30.88;16.50;;;3.30;99.90;;;;;;4989642;28;20045;-94
2022/03/04 10:52:32;;;;;;;30.23;15.13;;;3.50;99.90;;;;;;5028627;28;20050;-95
2022/03/04 10:54:58;;;;;;;28.88;14.52;;;3.50;99.90;;;;;;5008554;28;20487;-94
2022/03/04 10:57:23;;;;;;;30.90;15.50;;;3.60;99.90;;;;;;4988052;28;20058;-94
2022/03/04 10:59:57;;;;;;;27.27;15.70;;;3.60;99.90;;;;;;4987143;28;20060;-95
2022/03/04 11:02:41;;;;;;;30.60;16.20;;;3.70;99.90;;;;;;5004966;28;20056;-93
2022/03/04 11:05:08;;;;;;;30.65;15.82;;;3.80;99.90;;;;;;4990222;28;20042;-94
2022/03/04 11:07:35;;;;;;;28.05;14.52;;;3.90;99.90;;;;;;5000516;28;20053;-95
2022/03/04 11:10:02;;;;;;;27.15;14.13;;;4.00;99.90;;;;;;5003256;28;20049;-95
2022/03/04 11:12:52;;;;;;;;;;;;;;;;;;;;;
2022/03/04 11:15:23;;;;;;;28.40;15.07;;;4.00;99.90;;;;;;4998513;28;20136;-95
2022/03/04 11:17:49;;;;;;;29.33;14.85;;;4.10;99.90;;;;;;5005229;28;20057;-95
2022/03/04 11:20:16;;;;;;;29.10;15.90;;;4.10;99.90;;;;;;4990165;28;20092;-95
2022/03/04 11:22:45;;;;;;;29.83;16.23;;;4.40;99.90;;;;;;4993246;28;20037;-95
2022/03/04 11:25:13;;;;;;;26.02;14.68;;;4.50;99.90;;;;;;5005920;28;20064;-94
2022/03/04 11:27:46;;;;;;;28.17;15.60;;;4.50;99.90;;;;;;4982769;28;20080;-95
2022/03/04 11:30:33;;;;;;;28.27;14.40;;;4.60;99.90;;;;;;4982085;28;20414;-95
2022/03/04 11:33:11;;;;;;;27.73;16.00;;;4.60;99.90;;;;;;4985708;28;20061;-96
2022/03/04 11:36:03;;;;;;;27.13;15.30;;;4.80;99.90;;;;;;4989909;28;20033;-94
2022/03/04 11:38:44;;;;;;;26.88;15.02;;;4.80;99.90;;;;;;4985010;28;20042;-96
2022/03/04 11:41:17;;;;;;;27.92;14.73;;;4.90;99.90;;;;;;4979350;28;20057;-96
2022/03/04 11:43:48;;;;;;;28.77;16.00;;;5.00;99.90;;;;;;5030281;28;20049;-95
2022/03/04 11:46:41;;;;;;;27.88;14.70;;;5.10;99.90;;;;;;4982255;28;20048;-93
2022/03/04 11:49:26;;;;;;;27.40;15.95;;;5.30;99.90;;;;;;5028531;28;20049;-94
2022/03/04 11:52:11;;;;;;;26.48;14.73;;;5.30;99.90;;;;;;4978459;28;20050;-95
2022/03/04 11:54:49;;;;;;;26.95;15.75;;;5.40;99.90;;;;;;4985897;28;20045;-93
2022/03/04 11:57:36;;;;;;;25.08;15.48;;;5.50;99.90;;;;;;4998665;28;20132;-95
2022/03/04 12:00:11;;;;;;;26.58;15.68;;;5.50;99.90;;;;;;5009624;28;20050;-95
2022/03/04 12:02:46;;;;;;;25.30;14.18;;;5.60;99.90;;;;;;4984163;28;20140;-94
2022/03/04 12:05:15;;;;;;;25.83;15.48;;;5.70;99.90;;;;;;4987702;28;20060;-94
2022/03/04 12:07:45;;;;;;;24.88;14.18;;;5.60;99.90;;;;;;4986027;28;20172;-94
2022/03/04 12:10:31;;;;;;;24.23;14.27;;;5.70;99.90;;;;;;4990257;28;20041;-95
2022/03/04 12:13:00;;;;;;;25.33;15.18;;;5.90;99.90;;;;;;5000405;28;20068;-95
2022/03/04 12:15:26;;;;;;;23.85;14.25;;;5.90;99.90;;;;;;4982236;28;20137;-93
2022/03/04 12:17:52;;;;;;;24.30;14.25;;;5.90;99.90;;;;;;4970285;28;20469;-90
2022/03/04 12:20:39;;;;;;;25.98;16.40;;;6.10;99.90;;;;;;4978504;28;20037;-94
2022/03/04 12:23:14;;;;;;;23.52;15.00;;;6.10;99.90;;;;;;4991040;28;20042;-95
2022/03/04 12:25:51;;;;;;;22.35;13.77;;;6.20;99.90;;;;;;4993516;28;20128;-95
2022/03/04 12:28:24;;;;;;;22.77;14.50;;;6.40;99.90;;;;;;5041255;28;20090;-96
2022/03/04 12:31:14;;;;;;;25.23;14.32;;;6.50;99.90;;;;;;4995995;28;20049;-96
2022/03/04 12:33:46;;;;;;;24.95;14.85;;;6.60;99.90;;;;;;4993155;28;20116;-96
2022/03/04 12:36:16;;;;;;;23.75;14.40;;;6.70;99.90;;;;;;4984875;28;20046;-96
2022/03/04 12:38:46;;;;;;;21.67;13.80;;;6.80;99.90;;;;;;4995318;28;20065;-96